Weather at Rovaniemi Airport

Public forecast

Using degrees Celsius for public forecast. Weather courtesy of forecast.io.

Current aviation weather report (METAR) for Rovaniemi Airport

Retrieved 2020/10/01 21:20 UTC (22 minutes ago):

EFRO 012120Z AUTO 20002KT 0650 R21/1200D FG VV002 09/09 Q1026

Aviation forecast (TAF) for Rovaniemi Airport

Retrieved 2020/10/01 21:44 UTC (0 seconds ago):

TAF EFRO 012031Z 0121/0221 21004KT 2000 BR BKN002 TEMPO 0121/0203 0400 FG VV001 TEMPO 0203/0207 8000 NSW SCT002 BKN020 BECMG 0207/0209 BKN020